Terminal Aerodrome Forecast
Issued by NWS Charleston, WV

Home | Current Version | Previous Version | Text Only | Print | Product List | Glossary On
Versions: 1 2 3 4 5 6 7 8 9 10 11 12 13 14 15 16 17 18 19 20 21 22 23 24 25 26
000
FTUS41 KRLX 020200 AAA
TAFBKW
TAF AMD
KBKW 020245Z 0203/0224 VRB03KT P6SM SKC
     FM020500 16007KT P6SM SKC
     FM021600 18010G18KT P6SM SCT070
     FM021700 19010G18KT P6SM BKN060=

USA.gov is the U.S. government's official web portal to all federal, state and local government web resources and services.